Résultats

Trail Bas Verdon - Trail 22,5KM. Édition 2021.

22.5 Km
10/10/2021 à 09:30:00 - Greoux (Alpes-de-Haute-Provence)
90 arrivant(e)s.


 
Les autres classements de cet évènement




Place▲ Temps Dossard Nom Prenom Categ #Categ Sexe #Sexe Club Vit Moy Diplôme Partager
1 01:41:09 2025 BAYLOT BAPTISTE SEM 1 M 1 13.05
2 01:49:13 2028 SCHILIRO JURI SEM 2 M 2 12.09
3 01:49:25 2012 TEJEIRO-VEGA MIGUEL M1M 1 M 3 ACP-MARSEILLE 12.06
4 01:50:17 2032 LAZARIN VALERIAN M0M 1 M 4 11.97
5 02:01:20 2047 MILLAN LOIC SEM 3 M 5 10.88
6 02:03:32 2057 MICHEL DIDIER M3M 1 M 6 10.69
7 02:03:33 2061 DA-COSTA FILIPE M2M 1 M 7 10.68
8 02:04:39 1994 BARRIT GABRIEL CAM 1 M 8 AUC PENTATHLON 10.59
9 02:05:56 1995 MUNCH JULIEN SEM 4 M 9 10.48
10 02:06:30 2009 PELLEGRIN CHRISTOPHE M2M 2 M 10 10.43
11 02:08:59 1977 ASORIN GWENAEL M0M 2 M 11 CAVAL PERTUIS 10.23
12 02:11:15 1983 POL ROMAIN SEM 5 M 12 10.06
13 02:11:35 1993 BARRIT ERIC M1M 2 M 13 AUC PENTATHLON MODERNE 10.03
14 02:11:57 2017 BAYLOT FREDERIC M6M 1 M 14 SPORT LOISIRS COUCOURON 10.00
15 02:12:45 2018 TAVERNARO NICOLAS M1M 3 M 15 9.94
16 02:12:47 2034 ROSSI FREDERIC M1M 4 M 16 COURIR A VELAUX CAV 9.94
17 02:12:55 1997 DUMONT REMI M2M 3 M 17 EP MANOSQUE ATHLETISME 9.93
18 02:13:04 2060 LE-BAIL THIERRY M3M 2 M 18 9.92
19 02:13:33 2039 MARMOLLE FRANK M2M 4 M 19 TRIATHL'AIX 9.88
20 02:15:18 2000 MARTIN QUENTIN SEM 6 M 20 9.76
21 02:15:21 1985 BONNAUD CLEMENT SEM 7 M 21 RUN IN GREOUX 9.75
22 02:15:43 2006 BAYLOT CLEMENT SEM 8 M 22 9.73
23 02:16:04 2029 GUILLOT PIERRE M5M 1 M 23 9.70
24 02:16:43 1992 SANZ CHRISTOPHE M3M 3 M 24 9.66
25 02:17:04 2019 CLAIRGEAUX YANN M1M 5 M 25 9.63
26 02:17:43 2037 BRUNEL SEBASTIEN M1M 6 M 26 CHRONO LIBRE CHATEAUNEUF LES MARTIGUES 9.58
27 02:18:32 2038 LAMBROT GABRIEL SEM 9 M 27 ASCEA SACLAY 9.53
28 02:19:34 1987 TANIELIAN CLARA SEF 1 F 1 9.46
29 02:19:39 2062 DE-GIOVANNI RENE M3M 4 M 28 9.45
30 02:19:47 2027 DE-SOUSA-CARVALHO FLORENT SEM 10 M 29 9.44
31 02:20:29 1984 LANGRUME DAMIEN M1M 7 M 30 9.40
32 02:20:29 1979 AVRIL YANN M1M 8 M 31 TGB 9.40
33 02:21:40 2008 CERVETTO REGIS M1M 9 M 32 9.32
34 02:21:41 2026 MARTIN NICOLAS M0M 3 M 33 9.32
35 02:22:23 1988 QUEREUX MICKAEL M2M 5 M 34 AUC PENTATHLON 9.27
36 02:22:41 2041 LAURENT CHRISTOPHE M2M 6 M 35 9.25
37 02:22:51 2053 DIARRA MANMY-C M0F 1 F 2 9.24
38 02:24:18 2050 SACCOMANNO JEAN-LOUIS M2M 7 M 36 9.15
39 02:25:29 2024 LIABOEUF FREDERIC M0M 4 M 37 TATOUFMETOUF 9.07
40 02:25:29 2020 GABRIEL SERGE M1M 10 M 38 EP MANOSQUE ATHLETISME 9.07
41 02:25:57 2031 BONNARD MARIELLE M2F 1 F 3 9.04
42 02:27:08 2055 MARTIN MARILYN M2F 2 F 4 EPM ATHLETISME/EP MANOSQUE ATHLETISME 8.97
43 02:28:11 2011 LENGAGNE MAXIME M0M 5 M 39 8.91
44 02:29:12 1991 GALANAKIS ERIC M4M 1 M 40 CLES GARDANNE 8.85
45 02:29:16 2044 PERRIER GILLES M3M 5 M 41 8.84
46 02:30:00 2021 BOCHEREAU NADEGE M2F 3 F 5 EP MANOSQUE ATHLETISME 8.80
47 02:31:26 2059 CRETIN MICHEL M5M 2 M 42 8.72
48 02:31:36 1976 NAVELOT MATHIEU M0M 6 M 43 8.71
49 02:32:14 2007 CHENET LAURENT M4M 2 M 44 8.67
50 02:33:06 2013 DEL-GUIDICE JEAN-PIERRE M5M 3 M 45 AMC AUBAGNE 8.62
51 02:35:08 1970 BULTEL PIERRE SEM 11 M 46 8.51
52 02:35:10 2030 GUILLOT ANNIE M5F 1 F 6 8.51
53 02:35:20 1989 BOUISSOU CECILIA SEF 2 F 7 8.50
54 02:37:49 2005 LALAGUE CHRISTIAN M2M 8 M 47 8.36
55 02:39:15 2003 EUSTACHE PATRICE M3M 6 M 48 ASPNM 8.29
56 02:39:15 2002 EUSTACHE CARINE M2F 4 F 8 8.29
57 02:40:12 2001 DUVAUCHELLE YANN M1M 11 M 49 8.24
58 02:40:34 2036 BONAMY CYRIL M1M 12 M 50 8.22
59 02:40:47 2040 GUICHARD ALAIN M5M 4 M 51 ASPTT DIGNE-LES-BAINS 8.21
60 02:41:31 1973 PONS SYLVIA M2F 5 F 9 LFA TRETS 8.17
61 02:41:31 1972 RINAUDO NELLY M1F 1 F 10 LFA TRETS 8.17
62 02:44:58 1981 SALINERO STEPHANE M1M 13 M 52 FIT HOUSSE GREASQUE 8.00
63 02:47:27 2054 CHANDRE-VERNET PASCALE M4F 1 F 11 ASPTT DIGNE LES BAINS 7.88
64 02:48:06 1971 PEDENAU NICOLAS M0M 7 M 53 7.85
65 02:49:21 2045 ROUSSEAU-MONTOYA DORIAN SEM 12 M 54 7.79
66 02:49:41 2015 BORGIA-LAMURE CECILE M2F 6 F 12 ROCANDGROLLES 7.78
67 02:50:38 2004 BAYLOT ANTOINE SEM 13 M 55 7.74
68 02:52:05 1986 TODESCHINI DAMIEN SEM 14 M 56 7.67
69 02:53:38 1998 MEGY ANNE-CHARLOTTE M1F 2 F 13 7.60
70 02:53:39 1999 GALLET SEVERINE M1F 3 F 14 7.60
71 02:53:39 1996 DA-DALTO LINDSAY M0F 2 F 15 7.60
72 02:54:18 2035 CHAPUIS ARNAULT M1M 14 M 57 7.57
73 02:56:25 1974 FABRE JEAN-MARC M4M 3 M 58 7.48
74 02:56:50 2033 CHEVALARD BRUNO M4M 4 M 59 SPORTAIX-RAIDLIGHT 7.46
75 02:57:41 2049 LANTHEAUME FLORENCE M2F 7 F 16 AVIGNON LE PONTET TRIATHLON 7.43
76 02:58:18 2048 PANACCIULLI SERGIO M3M 7 M 60 7.40
77 02:59:02 2046 LOMBARD JEREMIE M1M 15 M 61 7.37
78 03:03:03 1982 CHOUVEL-SAYE ALEXANDRE M0M 8 M 62 7.21
79 03:06:04 2010 ROVERA CHRISTINE M4F 2 F 17 EP MANOSQUE ATHLETISME 7.09
80 03:06:08 2023 N:Anonyme 2023 P:Anonyme 2023 M1F 4 F 18 7.09
81 03:12:05 2052 GUIZZETTI FRANK M0M 9 M 63 BASTIRUN 6.87
82 03:12:23 2051 CARBONNEL REMY M0M 10 M 64 BASTI'RUN/ENDURANCE ATTITUDE 6.86
83 03:16:09 1980 JUILLAN TANGUY SEM 15 M 65 TRAIL ECO RAID FORCALQUIER 6.73
84 03:18:41 2022 ROUX SYLVIE M1F 5 F 19 6.64
85 03:25:57 1990 GAILLARD FLORENCE M3F 1 F 20 EP ATHLETISME MANOSQUE 6.41
86 03:50:50 2043 SEBBAN CAMILLE SEF 3 F 21 5.72
87 03:50:51 2042 SMADJA THOMAS SEM 16 M 66 5.72
88 03:55:25 2056 ISOARD GILBERT M6M 2 M 67 ESPRIT LACORDAIRE 5.61
89 03:55:29 1978 GADARINIAN GABRIEL M6M 3 M 68 5.61
90 03:58:38 2058 LE-BRIS MAXIME M1M 16 M 69 LA FOULEE SISTERONNAISE 5.53